createdAt,value
2017-10-20T00:11:14.987Z,16.50
2017-10-20T00:19:09.215Z,17.52
2017-10-20T00:40:36.475Z,13.23
2017-10-20T00:43:09.156Z,12.37
2017-10-20T00:45:49.398Z,11.68
2017-10-20T00:51:05.348Z,10.23
2017-10-20T00:56:21.683Z,8.48
2017-10-20T01:07:12.888Z,10.13
2017-10-20T01:30:20.133Z,8.95
2017-10-20T01:32:48.693Z,8.82
2017-10-20T01:38:20.481Z,9.43
2017-10-20T02:12:00.708Z,7.03
2017-10-20T02:20:27.977Z,8.25
2017-10-20T02:31:34.556Z,7.43
2017-10-20T03:27:43.724Z,7.30
2017-10-20T03:30:20.285Z,6.57
2017-10-20T03:35:28.646Z,7.95
2017-10-20T03:38:04.039Z,7.37
2017-10-20T03:45:51.929Z,7.78
2017-10-20T04:05:41.544Z,7.60
2017-10-20T04:08:13.755Z,8.05
2017-10-20T04:16:04.678Z,7.32
2017-10-20T04:30:32.972Z,6.35
2017-10-20T04:33:00.920Z,6.72
2017-10-20T04:49:02.263Z,6.93
2017-10-20T04:51:34.253Z,7.32
2017-10-20T04:57:00.583Z,8.00
2017-10-20T04:59:30.939Z,6.80
2017-10-20T05:01:57.670Z,8.68
2017-10-20T05:06:56.073Z,7.37
2017-10-20T05:21:08.190Z,6.30
2017-10-20T05:23:36.557Z,6.03
2017-10-20T05:31:55.812Z,6.15
2017-10-20T05:51:58.684Z,6.05
2017-10-20T06:03:14.389Z,7.40
2017-10-20T06:05:44.936Z,6.20
2017-10-20T06:11:08.816Z,6.43
2017-10-20T06:18:39.198Z,7.35
2017-10-20T06:23:41.813Z,6.30
2017-10-20T06:26:12.455Z,5.82
2017-10-20T06:31:12.586Z,5.95
2017-10-20T06:33:41.055Z,6.32
2017-10-20T06:43:42.236Z,8.30
2017-10-20T06:48:41.687Z,7.32
2017-10-20T06:51:08.504Z,6.78
2017-10-20T06:53:36.855Z,7.43
2017-10-20T06:56:05.292Z,9.00
2017-10-20T06:58:33.813Z,7.20
2017-10-20T07:03:32.355Z,9.13
2017-10-20T07:05:59.855Z,7.80
2017-10-20T07:08:28.952Z,8.57
2017-10-20T07:10:59.288Z,9.35
2017-10-20T07:13:29.555Z,9.65
2017-10-20T07:15:56.674Z,9.20
2017-10-20T07:18:29.559Z,7.25
2017-10-20T07:20:56.567Z,9.43
2017-10-20T07:23:24.169Z,10.93
2017-10-20T07:25:51.163Z,11.85
2017-10-20T07:28:18.249Z,10.73
2017-10-20T07:30:45.039Z,10.75
2017-10-20T07:33:12.086Z,10.68
2017-10-20T07:35:39.695Z,12.18
2017-10-20T07:38:06.679Z,12.90
2017-10-20T07:40:33.847Z,14.18
2017-10-20T07:43:01.012Z,11.50
2017-10-20T07:45:28.061Z,14.52
2017-10-20T07:47:55.200Z,11.52
2017-10-20T07:50:22.305Z,12.02
2017-10-20T07:52:49.465Z,10.32
2017-10-20T07:55:16.511Z,11.50
2017-10-20T07:57:43.553Z,14.18
2017-10-20T08:00:10.619Z,11.90
2017-10-20T08:02:38.188Z,10.63
2017-10-20T08:05:05.287Z,10.75
2017-10-20T08:07:31.996Z,13.15
2017-10-20T08:09:58.944Z,13.18
2017-10-20T08:12:25.884Z,12.18
2017-10-20T08:14:52.904Z,12.32
2017-10-20T08:17:19.973Z,13.65
2017-10-20T08:19:46.969Z,13.52
2017-10-20T19:12:57.064Z,5.45
2017-10-20T19:15:24.714Z,5.85
2017-10-20T19:17:51.553Z,5.65
2017-10-20T19:20:21.325Z,5.05
2017-10-20T19:22:48.784Z,6.43
2017-10-20T19:25:17.161Z,9.90
2017-10-20T19:27:45.332Z,6.93
2017-10-20T19:30:14.191Z,7.12
2017-10-20T19:35:14.246Z,6.82
2017-10-20T19:37:42.214Z,3.70
2017-10-20T19:40:12.023Z,6.50
2017-10-20T19:42:38.890Z,7.25
2017-10-20T19:45:06.677Z,7.10
2017-10-20T19:47:35.234Z,5.75
2017-10-20T19:50:02.713Z,4.18
2017-10-20T19:52:29.760Z,5.03
2017-10-20T19:54:56.868Z,4.15
2017-10-20T19:57:23.857Z,5.37
2017-10-20T19:59:50.571Z,4.70
2017-10-20T20:02:17.524Z,6.35
2017-10-20T20:04:44.538Z,7.22
2017-10-20T20:07:12.534Z,5.82
2017-10-20T20:09:40.154Z,5.50
2017-10-20T20:12:07.728Z,8.75
2017-10-20T20:14:34.430Z,6.90
2017-10-20T20:17:02.828Z,4.60
2017-10-20T20:19:29.561Z,4.95
2017-10-20T20:22:00.310Z,5.43
2017-10-20T20:24:27.316Z,4.85
2017-10-20T20:26:54.667Z,6.10
2017-10-20T20:29:21.619Z,7.97
2017-10-20T20:31:48.821Z,5.40
2017-10-20T20:34:18.460Z,4.57
2017-10-20T20:36:45.379Z,3.55
2017-10-20T20:39:12.363Z,5.65
2017-10-20T20:41:41.546Z,5.60
2017-10-20T20:44:08.501Z,6.60
2017-10-20T20:46:36.489Z,8.23
2017-10-20T20:49:03.564Z,5.53
2017-10-20T20:51:30.608Z,6.07
2017-10-20T20:53:57.888Z,7.78
2017-10-20T20:56:24.832Z,6.53
2017-10-20T20:58:51.765Z,6.55
2017-10-20T21:01:18.804Z,8.38
2017-10-20T21:03:46.231Z,5.32
2017-10-20T21:06:13.163Z,5.40
2017-10-20T21:08:40.255Z,7.68
2017-10-20T21:11:07.384Z,10.07
2017-10-20T21:13:34.875Z,4.05
2017-10-20T21:16:02.405Z,5.68
2017-10-20T21:18:31.629Z,4.07
2017-10-20T21:21:00.023Z,9.07
2017-10-20T21:23:28.808Z,11.77
2017-10-20T21:25:56.690Z,4.50
2017-10-20T21:28:24.104Z,7.55
2017-10-20T21:30:51.698Z,7.78
2017-10-20T21:33:18.631Z,5.53
2017-10-20T21:35:45.655Z,6.65
2017-10-20T21:38:14.615Z,4.12
2017-10-20T21:40:42.223Z,4.60
2017-10-20T21:43:09.668Z,8.43
2017-10-20T21:45:37.455Z,5.78
2017-10-20T21:48:04.590Z,7.22
2017-10-20T21:50:31.633Z,5.82
2017-10-20T21:52:59.211Z,5.55
2017-10-20T21:55:28.175Z,6.03
2017-10-20T21:57:54.867Z,7.78
2017-10-20T22:00:22.753Z,7.78
2017-10-20T22:02:50.357Z,8.70
2017-10-20T22:05:17.082Z,2.53
2017-10-20T22:07:44.190Z,5.95
2017-10-20T22:10:12.479Z,4.07
2017-10-20T22:12:39.468Z,5.95
2017-10-20T22:15:06.416Z,8.02
2017-10-20T22:17:33.505Z,6.25
2017-10-20T22:20:00.516Z,10.57
2017-10-20T22:22:27.628Z,5.18
2017-10-20T22:24:54.724Z,8.70
2017-10-20T22:27:21.710Z,7.35
2017-10-20T22:29:49.591Z,6.60
2017-10-20T22:32:17.522Z,4.50
2017-10-20T22:34:44.486Z,8.30
2017-10-20T22:37:12.381Z,5.97
2017-10-20T22:39:39.494Z,7.30
2017-10-20T22:42:07.101Z,2.70
2017-10-20T22:44:34.171Z,6.40
2017-10-20T22:47:01.116Z,3.45
2017-10-20T22:49:29.019Z,12.13
2017-10-20T22:51:55.782Z,5.20
2017-10-20T22:54:22.819Z,3.60
2017-10-20T22:56:49.936Z,4.25
2017-10-20T22:59:17.612Z,9.82
2017-10-20T23:01:45.512Z,7.28
2017-10-20T23:04:12.534Z,5.00
2017-10-20T23:06:39.587Z,4.00
2017-10-20T23:09:07.120Z,7.07
2017-10-20T23:11:34.615Z,4.82
2017-10-20T23:14:01.632Z,6.93
2017-10-20T23:16:28.658Z,9.77
2017-10-20T23:18:55.616Z,9.23
2017-10-20T23:21:22.887Z,6.12
2017-10-20T23:23:49.838Z,5.53
2017-10-20T23:26:16.969Z,10.95
2017-10-20T23:28:44.043Z,7.75
2017-10-20T23:31:12.336Z,7.62
2017-10-20T23:33:41.834Z,5.68
2017-10-20T23:36:08.560Z,6.50
2017-10-20T23:38:36.226Z,5.32
2017-10-20T23:41:03.294Z,8.45
2017-10-20T23:43:30.875Z,7.78
2017-10-20T23:45:58.515Z,3.87
2017-10-20T23:48:25.463Z,5.68
2017-10-20T23:50:52.226Z,5.85
2017-10-20T23:53:20.534Z,10.30
2017-10-20T23:55:47.636Z,8.85
2017-10-20T23:58:14.712Z,3.97
